Terminal Aerodrome Forecast
Issued by NWS

Home | Current Version | Previous Version | Text Only | Print | Product List | Glossary On
Versions: 1 2 3 4 5 6 7 8 9 10 11 12 13
000
FTAK31 PAJN 041014 AAA
TAFAYA
TAF AMD
PAYA 041014Z 0410/0506 08004KT P6SM BKN006 OVC060
     FM041200 10003KT P6SM -RA SCT006 BKN015 OVC060
     FM041500 09008KT 6SM -RA BKN020 OVC040
     FM042000 09010G17KT 4SM RA BR OVC025 WS020/13025KT
      AMD LTD TO CLD VIS AND WIND 0406/0410=

USA.gov is the U.S. government's official web portal to all federal, state and local government web resources and services.